world map with SHB marked

SHB - Airport

This information may not be accurate or current and is not valid for navigation or flight planning. No warranty of fitness for any purpose is made or implied.

flag of Hokkaidoflag of Japan

Donate via PayPal

Additional information is available on the NEW Great Circle Mapper

Location
City:  Nakashibetsu, Hokkaido, Japan
Name:Nakashibetsu Airport
ICAO / IATA:RJCN / SHB

Details
Type:Airport (Aerodrome, Airfield)
Latitude:43°34'39"N (43.577500)
Longitude:144°57'36"E (144.960000)
Datum:WGS 1984
Elevation:234 ft (71 m)
Runways:1
Longest:6560 × 150 ft (1999 × 45.5 m)

Time
Timezone:UTC+9 (DST+11)
Local Time:

Weather
METAR:RJCN  040900Z 29010KT 260V330 8000 FEW008 SCT012 BKN040 M02/M07 Q0995

Related Locations
Nearby:
Farthest:SAVU: 11922 mi / 19187 km
Comodoro Rivadavia [Comodoro Rivadavia UIR], AR

Find:

   beyond  
but within

Other Information
Maps:
Sources:

  


 


Great Circle Mapper   Great Circle Mapper
Great Circle Mapper FAQ   Great Circle Mapper FAQ
  Karl's Home Page
KLSē   KLSē Home
   GC on Facebook
Airlines of the World   Airlines of the World
Donate via PayPal


Copyright © 2004-2020, Karl L. Swartz. All rights reserved.
All trademarks mentioned herein belong to their respective owners.

Please see credits for attribution and copyright information.

Karl Swartz <karl@kls2.com>
  Powered by FreeBSD
Valid HTML 4.01!
Labeled with ICRA
hCard Microformat
Geo Microformat